createdAt,value
2023-02-24T00:01:52.298Z,3.47
2023-02-24T00:04:20.805Z,3.05
2023-02-24T00:06:48.563Z,3.15
2023-02-24T00:09:20.960Z,3.10
2023-02-24T00:11:55.368Z,3.53
2023-02-24T00:14:24.661Z,2.72
2023-02-24T00:16:52.073Z,3.25
2023-02-24T00:19:23.503Z,3.47
2023-02-24T00:21:51.478Z,3.42
2023-02-24T00:24:18.702Z,4.55
2023-02-24T00:26:48.379Z,3.30
2023-02-24T00:29:15.089Z,3.92
2023-02-24T00:31:42.971Z,4.43
2023-02-24T00:34:12.585Z,4.70
2023-02-24T00:36:39.753Z,4.15
2023-02-24T00:39:11.713Z,4.93
2023-02-24T00:41:42.506Z,4.45
2023-02-24T00:44:12.748Z,5.43
2023-02-24T00:46:42.012Z,6.10
2023-02-24T00:49:16.985Z,6.63
2023-02-24T00:51:46.945Z,5.43
2023-02-24T00:54:15.006Z,6.35
2023-02-24T00:56:47.097Z,6.43
2023-02-24T00:59:16.940Z,7.03
2023-02-24T01:01:47.282Z,6.30
2023-02-24T01:04:15.645Z,7.53
2023-02-24T01:06:50.934Z,7.22
2023-02-24T01:09:20.244Z,7.63
2023-02-24T01:12:07.312Z,7.32
2023-02-24T01:14:35.857Z,7.55
2023-02-24T01:17:04.726Z,8.07
2023-02-24T01:19:33.331Z,10.40
2023-02-24T01:22:06.121Z,10.48
2023-02-24T01:24:35.466Z,9.93
2023-02-24T01:27:02.365Z,12.57
2023-02-24T01:29:29.072Z,11.85
2023-02-24T01:31:58.782Z,11.00
2023-02-24T01:34:27.102Z,11.15
2023-02-24T01:36:56.954Z,9.90
2023-02-24T01:39:25.839Z,9.05
2023-02-24T01:41:53.090Z,8.25
2023-02-24T01:44:22.719Z,9.18
2023-02-24T01:46:52.148Z,8.90
2023-02-24T01:49:23.424Z,9.00
2023-02-24T01:51:54.808Z,8.48
2023-02-24T01:54:26.335Z,7.35
2023-02-24T01:56:55.757Z,6.88
2023-02-24T01:59:25.681Z,6.78
2023-02-24T02:01:55.341Z,8.35
2023-02-24T02:04:36.839Z,9.10
2023-02-24T02:07:03.759Z,7.63
2023-02-24T02:09:32.585Z,7.70
2023-02-24T02:11:59.211Z,8.75
2023-02-24T02:14:28.351Z,8.27
2023-02-24T02:17:15.214Z,8.63
2023-02-24T02:20:07.489Z,8.10
2023-02-24T02:22:37.062Z,8.85
2023-02-24T02:25:18.629Z,8.60
2023-02-24T02:28:16.448Z,7.68
2023-02-24T02:30:55.973Z,7.15
2023-02-24T02:33:47.937Z,7.70
2023-02-24T02:36:32.953Z,7.00
2023-02-24T02:39:13.170Z,7.20
2023-02-24T02:41:53.600Z,6.63
2023-02-24T02:44:32.326Z,6.40
2023-02-24T02:47:13.162Z,6.53
2023-02-24T02:49:49.436Z,6.30
2023-02-24T02:52:23.013Z,5.20
2023-02-24T02:55:07.244Z,5.30
2023-02-24T02:57:37.592Z,5.00
2023-02-24T03:00:23.286Z,4.47
2023-02-24T03:02:55.289Z,4.50
2023-02-24T03:05:29.986Z,5.88
2023-02-24T03:08:00.721Z,5.43
2023-02-24T03:10:29.796Z,5.00
2023-02-24T03:12:59.592Z,4.63
2023-02-24T03:15:31.026Z,4.33
2023-02-24T03:18:10.382Z,4.68
2023-02-24T03:20:47.619Z,4.35
2023-02-24T03:23:21.910Z,4.07
2023-02-24T03:25:54.799Z,4.22
2023-02-24T03:28:37.368Z,4.85
2023-02-24T03:31:18.225Z,4.57
2023-02-24T03:33:57.116Z,4.75
2023-02-24T03:36:24.026Z,4.00
2023-02-24T03:38:51.166Z,4.47
2023-02-24T03:41:18.851Z,4.32
2023-02-24T03:43:50.118Z,3.70
2023-02-24T03:46:17.266Z,3.75
2023-02-24T03:48:55.691Z,3.50
2023-02-24T03:51:23.433Z,4.10
2023-02-24T03:54:11.034Z,4.03
2023-02-24T03:56:56.771Z,4.68
2023-02-24T03:59:48.221Z,3.40
2023-02-24T04:02:32.839Z,6.38
2023-02-24T04:05:09.576Z,3.53
2023-02-24T04:08:01.262Z,4.22
2023-02-24T04:10:40.561Z,4.35
2023-02-24T04:13:35.483Z,4.10
2023-02-24T04:16:28.843Z,3.38
2023-02-24T04:19:04.725Z,4.03
2023-02-24T04:21:37.569Z,3.92
2023-02-24T04:24:11.399Z,4.28
2023-02-24T04:26:42.344Z,4.20
2023-02-24T04:29:13.918Z,3.40
2023-02-24T04:31:41.023Z,4.67
2023-02-24T04:34:09.389Z,4.05
2023-02-24T04:36:38.652Z,3.50
2023-02-24T04:39:07.103Z,3.97
2023-02-24T04:41:35.732Z,3.97
2023-02-24T04:44:02.375Z,4.03
2023-02-24T04:46:32.255Z,3.63
2023-02-24T04:48:59.727Z,4.03
2023-02-24T04:51:26.290Z,4.38
2023-02-24T04:53:55.304Z,4.00
2023-02-24T04:56:22.381Z,3.78
2023-02-24T04:58:48.981Z,3.88
2023-02-24T05:01:15.562Z,4.60
2023-02-24T05:03:42.419Z,3.53
2023-02-24T05:06:16.036Z,4.43
2023-02-24T05:08:42.981Z,4.00
2023-02-24T05:11:15.954Z,3.90
2023-02-24T05:13:45.715Z,3.50
2023-02-24T05:16:15.461Z,3.67
2023-02-24T05:18:42.615Z,4.32
2023-02-24T05:21:33.281Z,3.92
2023-02-24T05:24:06.256Z,3.00
2023-02-24T05:26:35.825Z,2.90
2023-02-24T05:29:04.998Z,3.00
2023-02-24T05:31:31.732Z,4.00
2023-02-24T05:34:03.257Z,3.55
2023-02-24T05:36:40.222Z,3.65
2023-02-24T05:39:09.239Z,3.65
2023-02-24T05:41:38.802Z,3.38
2023-02-24T05:44:11.054Z,4.30
2023-02-24T05:46:41.309Z,3.85
2023-02-24T05:49:14.200Z,3.63
2023-02-24T05:51:44.319Z,4.00
2023-02-24T05:54:13.684Z,4.35
2023-02-24T05:56:44.394Z,3.78
2023-02-24T05:59:12.544Z,3.83
2023-02-24T06:01:41.610Z,4.05
2023-02-24T06:04:09.366Z,5.20
2023-02-24T06:06:42.444Z,4.10
2023-02-24T06:09:12.685Z,4.68
2023-02-24T06:11:45.103Z,3.85
2023-02-24T06:14:13.012Z,3.90
2023-02-24T06:16:41.407Z,4.50
2023-02-24T06:19:10.399Z,3.60
2023-02-24T06:21:41.230Z,4.20
2023-02-24T06:24:18.376Z,4.45
2023-02-24T06:26:45.883Z,4.30
2023-02-24T06:29:17.552Z,4.38
2023-02-24T06:31:44.947Z,4.38
2023-02-24T06:34:13.902Z,3.95
2023-02-24T06:36:40.648Z,3.95
2023-02-24T06:39:13.490Z,3.00
2023-02-24T06:41:40.468Z,3.97
2023-02-24T06:44:07.240Z,3.97
2023-02-24T06:46:33.828Z,3.80
2023-02-24T06:49:00.400Z,3.90
2023-02-24T06:51:30.191Z,3.08
2023-02-24T06:53:59.316Z,3.50
2023-02-24T06:56:27.213Z,2.95
2023-02-24T06:58:55.822Z,3.90
2023-02-24T07:01:28.710Z,3.35
2023-02-24T07:04:12.862Z,4.07
2023-02-24T07:06:41.932Z,3.42
2023-02-24T07:09:11.520Z,3.65
2023-02-24T07:11:41.551Z,3.00
2023-02-24T07:14:09.671Z,4.13
2023-02-24T07:16:36.925Z,3.78
2023-02-24T07:19:11.191Z,3.53
2023-02-24T07:21:43.178Z,3.83
2023-02-24T07:24:13.363Z,3.20
2023-02-24T07:26:41.719Z,2.70
2023-02-24T07:29:11.411Z,3.03
2023-02-24T07:31:39.689Z,3.05
2023-02-24T07:34:06.361Z,3.03
2023-02-24T07:36:38.916Z,2.58
2023-02-24T07:39:09.133Z,3.03
2023-02-24T07:41:36.994Z,3.05
2023-02-24T07:44:03.610Z,2.65
2023-02-24T07:46:30.427Z,2.90
2023-02-24T07:48:59.757Z,2.35
2023-02-24T07:51:27.761Z,3.03
2023-02-24T07:53:59.853Z,2.53
2023-02-24T07:56:28.470Z,2.67
2023-02-24T07:59:02.093Z,2.40
2023-02-24T08:01:30.926Z,2.75
2023-02-24T08:04:01.467Z,3.00
2023-02-24T08:06:38.041Z,2.70
2023-02-24T08:09:39.558Z,2.30
2023-02-24T08:12:08.033Z,2.90
2023-02-24T08:14:35.139Z,1.90
2023-02-24T08:17:05.427Z,1.95
2023-02-24T08:19:39.330Z,2.15
2023-02-24T08:22:19.599Z,2.88
2023-02-24T08:24:52.785Z,2.55
2023-02-24T08:27:25.156Z,2.35
2023-02-24T08:30:04.458Z,2.58
2023-02-24T08:32:43.705Z,2.50
2023-02-24T08:35:19.728Z,2.55
2023-02-24T08:37:52.066Z,1.65
2023-02-24T08:40:32.064Z,2.35
2023-02-24T08:43:16.277Z,2.67
2023-02-24T08:45:52.200Z,2.10
2023-02-24T08:48:37.649Z,2.00
2023-02-24T08:51:22.770Z,2.13
2023-02-24T08:53:54.788Z,2.63
2023-02-24T08:56:34.641Z,2.17
2023-02-24T08:59:07.675Z,2.97
2023-02-24T09:01:39.894Z,3.33
2023-02-24T09:04:12.402Z,2.30
2023-02-24T09:06:48.452Z,1.92
2023-02-24T09:09:19.324Z,2.10
2023-02-24T09:11:56.187Z,2.88
2023-02-24T09:14:36.419Z,2.30
2023-02-24T09:17:06.568Z,1.83
2023-02-24T09:19:48.161Z,2.70
2023-02-24T09:22:31.294Z,2.35
2023-02-24T09:25:17.933Z,2.67
2023-02-24T09:28:07.910Z,2.78
2023-02-24T09:30:37.760Z,2.55
2023-02-24T09:33:19.451Z,3.35
2023-02-24T09:36:09.768Z,2.17
2023-02-24T09:39:01.669Z,1.90
2023-02-24T09:41:53.280Z,2.60
2023-02-24T09:44:33.205Z,2.05
2023-02-24T09:47:08.931Z,2.25
2023-02-24T09:49:49.669Z,2.45
2023-02-24T09:52:18.851Z,3.22
2023-02-24T09:55:08.925Z,2.30
2023-02-24T09:58:06.081Z,2.13
2023-02-24T10:00:33.775Z,2.15
2023-02-24T10:03:24.864Z,3.13
2023-02-24T10:06:12.249Z,2.60
2023-02-24T10:08:49.658Z,2.83
2023-02-24T10:11:16.761Z,2.25
2023-02-24T10:13:53.106Z,2.67
2023-02-24T10:16:23.843Z,2.55
2023-02-24T10:19:15.182Z,2.60
2023-02-24T10:22:27.288Z,2.58
2023-02-24T10:25:21.095Z,2.50
2023-02-24T10:27:58.214Z,3.50
2023-02-24T10:30:47.786Z,2.42
2023-02-24T10:33:28.012Z,3.28
2023-02-24T10:36:09.969Z,3.15
2023-02-24T10:38:40.738Z,3.45
2023-02-24T10:41:10.228Z,2.88
2023-02-24T10:43:45.497Z,2.92
2023-02-24T10:46:41.723Z,3.35
2023-02-24T10:49:11.743Z,3.13
2023-02-24T10:51:45.188Z,2.97
2023-02-24T10:54:34.429Z,3.38
2023-02-24T10:57:36.340Z,2.72
2023-02-24T11:00:30.892Z,3.85
2023-02-24T11:03:10.557Z,4.07
2023-02-24T11:06:00.937Z,3.85
2023-02-24T11:08:36.970Z,2.92
2023-02-24T11:11:29.961Z,3.78
2023-02-24T11:14:22.004Z,2.97
2023-02-24T11:17:10.431Z,2.60
2023-02-24T11:19:55.978Z,5.78
2023-02-24T11:22:36.232Z,3.78
2023-02-24T11:25:14.182Z,4.95
2023-02-24T11:27:43.319Z,3.83
2023-02-24T11:30:45.238Z,3.92
2023-02-24T11:33:30.609Z,4.28
2023-02-24T11:36:14.746Z,4.05
2023-02-24T11:39:21.546Z,4.15
2023-02-24T11:41:55.652Z,5.13
2023-02-24T11:44:40.737Z,4.15
2023-02-24T11:47:13.996Z,3.97
2023-02-24T11:49:46.009Z,3.70
2023-02-24T11:52:41.110Z,4.53
2023-02-24T11:55:22.408Z,4.20
2023-02-24T11:57:54.453Z,3.92
2023-02-24T12:00:24.701Z,4.13
2023-02-24T12:03:04.353Z,4.82
2023-02-24T12:05:36.872Z,4.30
2023-02-24T12:08:09.644Z,4.78
2023-02-24T12:13:11.268Z,4.75
2023-02-24T12:15:48.583Z,5.38
2023-02-24T12:18:24.296Z,5.25
2023-02-24T12:21:14.714Z,4.97
2023-02-24T12:23:44.654Z,5.07
2023-02-24T12:26:29.407Z,5.00
2023-02-24T12:29:34.349Z,6.93
2023-02-24T12:32:17.518Z,15.32
2023-02-24T12:34:53.066Z,12.50
2023-02-24T12:37:42.585Z,6.20
2023-02-24T12:40:23.395Z,9.48
2023-02-24T12:42:52.840Z,9.55
2023-02-24T12:45:52.518Z,10.20
2023-02-24T12:48:40.028Z,14.13
2023-02-24T12:51:42.672Z,10.00
2023-02-24T12:54:19.890Z,6.70
2023-02-24T12:56:58.721Z,10.77
2023-02-24T12:59:33.050Z,19.02
2023-02-24T13:02:01.321Z,7.63
2023-02-24T13:04:46.550Z,10.02
2023-02-24T13:07:39.058Z,9.10
2023-02-24T13:10:23.642Z,6.38
2023-02-24T13:13:05.348Z,7.30
2023-02-24T13:15:34.285Z,6.72
2023-02-24T13:18:01.134Z,5.32
2023-02-24T13:20:31.300Z,5.82
2023-02-24T13:22:59.210Z,4.97
2023-02-24T13:25:52.875Z,5.60
2023-02-24T13:28:33.269Z,6.20
2023-02-24T13:31:07.489Z,6.03
2023-02-24T13:33:40.256Z,5.03
2023-02-24T13:36:22.627Z,12.63
2023-02-24T13:39:05.830Z,4.90
2023-02-24T13:41:32.296Z,4.30
2023-02-24T13:44:03.595Z,3.83
2023-02-24T13:46:49.381Z,4.75
2023-02-24T13:49:37.757Z,5.05
2023-02-24T13:52:41.130Z,5.22
2023-02-24T13:55:22.425Z,5.10
2023-02-24T13:58:02.061Z,4.85
2023-02-24T14:00:55.134Z,5.28
2023-02-24T14:05:51.546Z,6.80
2023-02-24T14:08:26.002Z,4.82
2023-02-24T14:10:55.984Z,5.70
2023-02-24T14:13:29.739Z,4.22
2023-02-24T14:15:58.231Z,4.13
2023-02-24T14:18:27.134Z,4.72
2023-02-24T14:20:55.628Z,5.03
2023-02-24T14:23:32.084Z,4.90
2023-02-24T14:26:01.778Z,6.00
2023-02-24T14:28:34.258Z,4.68
2023-02-24T14:31:09.313Z,4.78
2023-02-24T14:33:39.209Z,4.90
2023-02-24T14:36:14.070Z,4.97
2023-02-24T14:38:43.763Z,6.50
2023-02-24T14:41:25.260Z,6.30
2023-02-24T14:43:52.836Z,7.75
2023-02-24T14:46:20.190Z,4.97
2023-02-24T14:48:53.411Z,5.65
2023-02-24T14:51:29.603Z,5.28
2023-02-24T14:54:01.676Z,4.78
2023-02-24T14:56:32.716Z,2.65
2023-02-24T14:59:19.094Z,1.88
2023-02-24T15:01:49.308Z,1.85
2023-02-24T15:04:30.766Z,2.05
2023-02-24T15:06:57.856Z,2.10
2023-02-24T15:09:31.596Z,2.38
2023-02-24T15:11:58.247Z,2.55
2023-02-24T15:14:30.621Z,3.42
2023-02-24T15:17:08.501Z,2.42
2023-02-24T15:19:45.756Z,1.67
2023-02-24T15:22:21.580Z,2.00
2023-02-24T15:24:49.165Z,2.10
2023-02-24T15:27:15.600Z,2.53
2023-02-24T15:29:43.519Z,1.98
2023-02-24T15:32:17.789Z,2.30
2023-02-24T15:34:47.847Z,1.58
2023-02-24T15:37:20.356Z,1.95
2023-02-24T15:39:48.715Z,2.47
2023-02-24T15:42:28.271Z,4.40
2023-02-24T15:45:07.011Z,2.10
2023-02-24T15:47:45.278Z,3.30
2023-02-24T15:50:13.150Z,3.13
2023-02-24T15:52:41.039Z,2.90
2023-02-24T15:55:10.347Z,5.53
2023-02-24T15:57:37.112Z,3.03
2023-02-24T16:00:13.152Z,2.95
2023-02-24T16:02:41.149Z,4.72
2023-02-24T16:05:12.743Z,2.45
2023-02-24T16:07:39.814Z,3.00
2023-02-24T16:10:06.739Z,2.60
2023-02-24T16:12:36.824Z,3.35
2023-02-24T16:15:06.981Z,3.72
2023-02-24T16:17:35.142Z,3.22
2023-02-24T16:20:02.437Z,1.90
2023-02-24T16:22:29.290Z,2.33
2023-02-24T16:24:56.021Z,2.03
2023-02-24T16:27:23.835Z,2.00
2023-02-24T16:29:51.095Z,1.98
2023-02-24T16:32:17.725Z,1.83
2023-02-24T16:34:44.385Z,2.70
2023-02-24T16:37:17.954Z,1.65
2023-02-24T16:39:45.675Z,1.33
2023-02-24T16:42:12.671Z,1.42
2023-02-24T16:44:39.377Z,1.90
2023-02-24T16:47:07.286Z,1.98
2023-02-24T16:49:34.274Z,1.60
2023-02-24T16:52:00.794Z,1.73
2023-02-24T16:54:29.235Z,2.13
2023-02-24T16:56:56.830Z,2.45
2023-02-24T16:59:24.062Z,2.35
2023-02-24T17:01:50.654Z,2.05
2023-02-24T17:04:17.264Z,2.22
2023-02-24T17:06:43.843Z,2.67
2023-02-24T17:09:10.408Z,3.85
2023-02-24T17:11:36.976Z,4.05
2023-02-24T17:14:03.514Z,2.10
2023-02-24T17:16:30.173Z,3.33
2023-02-24T17:18:56.703Z,1.80
2023-02-24T17:21:24.296Z,1.92
2023-02-24T17:23:51.412Z,2.63
2023-02-24T17:26:18.046Z,2.75
2023-02-24T17:28:44.697Z,1.65
2023-02-24T17:31:11.451Z,3.47
2023-02-24T17:33:38.100Z,2.30
2023-02-24T17:36:04.781Z,3.88
2023-02-24T17:38:31.341Z,3.00
2023-02-24T17:40:57.977Z,3.08
2023-02-24T17:43:24.579Z,2.90
2023-02-24T17:45:52.845Z,2.83
2023-02-24T17:48:19.777Z,1.70
2023-02-24T17:50:47.237Z,1.90
2023-02-24T17:53:14.734Z,2.67
2023-02-24T17:55:55.952Z,1.95
2023-02-24T17:58:28.198Z,2.00
2023-02-24T18:00:54.847Z,1.92
2023-02-24T18:03:21.536Z,1.73
2023-02-24T18:05:48.234Z,1.60
2023-02-24T18:08:14.763Z,2.15
2023-02-24T18:10:41.378Z,2.70
2023-02-24T18:13:08.007Z,1.95
2023-02-24T18:15:34.633Z,2.33
2023-02-24T18:18:01.234Z,2.92
2023-02-24T18:20:27.909Z,2.72
2023-02-24T18:22:54.521Z,2.38
2023-02-24T18:25:21.112Z,3.05
2023-02-24T18:27:47.684Z,2.63
2023-02-24T18:30:17.660Z,6.03
2023-02-24T18:32:44.968Z,2.67
2023-02-24T18:35:13.092Z,3.55
2023-02-24T18:37:39.772Z,3.85
2023-02-24T18:40:06.923Z,3.90
2023-02-24T18:42:33.576Z,4.15
2023-02-24T18:45:00.109Z,4.00
2023-02-24T18:47:26.667Z,3.33
2023-02-24T18:49:53.269Z,2.60
2023-02-24T18:52:19.758Z,2.83
2023-02-24T18:54:47.734Z,3.72
2023-02-24T18:57:14.514Z,3.08
2023-02-24T18:59:41.037Z,4.55
2023-02-24T19:02:09.954Z,3.45
2023-02-24T19:04:36.547Z,3.42
2023-02-24T19:07:03.094Z,3.10
2023-02-24T19:09:29.715Z,3.53
2023-02-24T19:11:56.245Z,2.97
2023-02-24T19:14:22.781Z,4.15
2023-02-24T19:16:49.399Z,4.90
2023-02-24T19:19:16.808Z,4.97
2023-02-24T19:21:46.344Z,4.63
2023-02-24T19:24:13.789Z,3.05
2023-02-24T19:26:42.570Z,3.22
2023-02-24T19:29:09.981Z,3.50
2023-02-24T19:31:37.661Z,3.42
2023-02-24T19:34:13.781Z,4.22
2023-02-24T19:36:41.190Z,2.88
2023-02-24T19:39:13.533Z,2.88
2023-02-24T19:41:40.121Z,3.78
2023-02-24T19:44:07.192Z,2.95
2023-02-24T19:46:34.299Z,3.67
2023-02-24T19:49:01.253Z,2.63
2023-02-24T19:51:31.086Z,3.53
2023-02-24T19:54:00.087Z,4.07
2023-02-24T19:56:29.611Z,3.65
2023-02-24T19:58:57.955Z,3.38
2023-02-24T20:01:26.219Z,4.60
2023-02-24T20:03:57.999Z,4.15
2023-02-24T20:06:28.820Z,4.63
2023-02-24T20:08:56.688Z,3.95
2023-02-24T20:11:24.505Z,3.97
2023-02-24T20:13:52.791Z,4.47
2023-02-24T20:16:23.588Z,4.90
2023-02-24T20:18:50.903Z,5.15
2023-02-24T20:21:17.603Z,4.55
2023-02-24T20:23:44.397Z,5.30
2023-02-24T20:26:14.127Z,4.47
2023-02-24T20:28:41.024Z,4.72
2023-02-24T20:31:13.530Z,6.72
2023-02-24T20:33:40.982Z,5.43
2023-02-24T20:36:12.866Z,6.15
2023-02-24T20:38:39.728Z,3.78
2023-02-24T20:41:06.819Z,4.22
2023-02-24T20:43:33.990Z,4.60
2023-02-24T20:46:09.695Z,5.30
2023-02-24T20:48:36.381Z,4.28
2023-02-24T20:51:06.606Z,4.40
2023-02-24T20:53:34.578Z,3.88
2023-02-24T20:56:06.356Z,4.13
2023-02-24T20:58:33.991Z,4.18
2023-02-24T21:01:00.617Z,3.60
2023-02-24T21:03:27.285Z,4.20
2023-02-24T21:06:04.534Z,4.70
2023-02-24T21:08:35.499Z,4.45
2023-02-24T21:11:02.110Z,4.47
2023-02-24T21:13:28.670Z,4.30
2023-02-24T21:15:55.765Z,3.67
2023-02-24T21:18:22.879Z,3.70
2023-02-24T21:20:53.879Z,5.57
2023-02-24T21:23:21.806Z,3.83
2023-02-24T21:25:52.850Z,4.93
2023-02-24T21:28:22.877Z,4.35
2023-02-24T21:30:50.249Z,6.85
2023-02-24T21:33:18.420Z,5.25
2023-02-24T21:35:55.987Z,5.50
2023-02-24T21:38:22.658Z,3.53
2023-02-24T21:40:50.024Z,4.55
2023-02-24T21:43:17.772Z,4.05
2023-02-24T21:45:45.449Z,9.80
2023-02-24T21:48:12.053Z,3.10
2023-02-24T21:50:38.573Z,3.75
2023-02-24T21:53:06.100Z,3.42
2023-02-24T21:55:33.975Z,4.20
2023-02-24T21:58:00.507Z,2.88
2023-02-24T22:00:28.509Z,5.80
2023-02-24T22:02:55.830Z,13.68
2023-02-24T22:05:24.528Z,10.93
2023-02-24T22:07:51.773Z,6.85
2023-02-24T22:10:20.946Z,6.28
2023-02-24T22:12:50.794Z,5.13
2023-02-24T22:15:17.830Z,5.25
2023-02-24T22:17:44.377Z,5.03
2023-02-24T22:20:13.368Z,7.03
2023-02-24T22:22:41.890Z,6.13
2023-02-24T22:25:12.501Z,9.27
2023-02-24T22:27:39.493Z,5.00
2023-02-24T22:30:07.751Z,4.70
2023-02-24T22:32:35.936Z,4.38
2023-02-24T22:35:03.027Z,3.28
2023-02-24T22:37:29.834Z,4.13
2023-02-24T22:39:56.521Z,4.53
2023-02-24T22:42:23.206Z,3.90
2023-02-24T22:44:49.752Z,3.35
2023-02-24T22:47:16.984Z,2.67
2023-02-24T22:49:43.829Z,2.63
2023-02-24T22:52:11.527Z,2.70
2023-02-24T22:54:38.064Z,2.38
2023-02-24T22:57:04.556Z,3.33
2023-02-24T22:59:31.145Z,3.00
2023-02-24T23:01:59.406Z,2.30
2023-02-24T23:04:29.115Z,3.47
2023-02-24T23:06:57.148Z,2.97
2023-02-24T23:09:24.334Z,1.88
2023-02-24T23:11:51.007Z,2.05
2023-02-24T23:14:17.761Z,2.85
2023-02-24T23:16:47.208Z,2.20
2023-02-24T23:19:17.807Z,3.00
2023-02-24T23:21:47.259Z,6.45
2023-02-24T23:24:15.129Z,4.18
2023-02-24T23:26:45.190Z,4.35
2023-02-24T23:29:15.308Z,3.22
2023-02-24T23:31:42.584Z,2.65
2023-02-24T23:34:10.159Z,3.28
2023-02-24T23:36:39.445Z,5.07
2023-02-24T23:39:07.646Z,1.95
2023-02-24T23:41:35.539Z,3.85
2023-02-24T23:44:02.307Z,2.70
2023-02-24T23:46:29.634Z,2.65
2023-02-24T23:48:57.370Z,2.45
2023-02-24T23:51:24.838Z,3.38
2023-02-24T23:53:51.658Z,2.80
2023-02-24T23:56:22.239Z,3.00
2023-02-24T23:58:57.906Z,3.25
